Time;durP1;ratioP1;P1;durP2;ratioP2;P2;SDS_P1;SDS_P2;PMS_P1;PMS_P2;Temp;Humidity;BMP_temperature;BMP_pressure;BME280_temperature;BME280_humidity;BME280_pressure;Samples;Min_cycle;Max_cycle;Signal;HPM_P1;HPM_P2
2022/10/02 00:02:24;;;;;;;11.40;2.40;;;12.60;1.00;;;;;;4971996;28;20420;-66
2022/10/02 00:05:29;;;;;;;2.70;1.90;;;12.60;1.00;;;;;;4972672;28;20413;-66
2022/10/02 00:08:18;;;;;;;2.83;2.30;;;12.60;1.00;;;;;;4972629;28;20452;-63
2022/10/02 00:10:54;;;;;;;4.30;2.40;;;12.60;1.00;;;;;;4972048;28;20487;-66
2022/10/02 00:13:53;;;;;;;4.00;2.03;;;12.60;1.00;;;;;;4971672;28;20767;-64
2022/10/02 00:16:36;;;;;;;2.90;2.03;;;12.70;1.00;;;;;;4972773;28;20500;-65
2022/10/02 00:19:02;;;;;;;2.53;1.90;;;12.70;1.00;;;;;;4972431;28;20444;-65
2022/10/02 00:21:43;;;;;;;2.60;1.70;;;12.70;1.00;;;;;;4970567;28;20424;-69
2022/10/02 00:24:18;;;;;;;4.40;1.77;;;12.70;1.00;;;;;;4972353;28;20723;-66
2022/10/02 00:27:41;;;;;;;3.80;2.80;;;12.70;1.00;;;;;;4972835;28;20409;-64
2022/10/02 00:30:11;;;;;;;5.50;1.60;;;12.70;1.00;;;;;;4930942;29;20526;-64
2022/10/02 00:32:51;;;;;;;4.77;1.63;;;12.70;1.00;;;;;;4930921;29;20419;-64
2022/10/02 00:35:26;;;;;;;4.00;1.40;;;12.70;1.00;;;;;;4931977;29;20442;-63
2022/10/02 00:38:04;;;;;;;3.67;1.53;;;12.70;1.00;;;;;;4931996;29;20426;-63
2022/10/02 00:40:50;;;;;;;4.50;1.70;;;12.60;1.00;;;;;;4930437;29;20418;-67
2022/10/02 00:43:45;;;;;;;14.53;2.50;;;12.60;1.00;;;;;;4930713;29;20427;-64
2022/10/02 00:46:19;;;;;;;5.90;2.70;;;12.60;1.00;;;;;;4913966;29;20430;-66
2022/10/02 00:49:09;;;;;;;7.10;2.20;;;12.60;1.00;;;;;;4931461;29;20549;-65
2022/10/02 00:51:52;;;;;;;3.17;1.90;;;12.60;1.00;;;;;;4930823;29;20516;-62
2022/10/02 00:54:55;;;;;;;7.57;1.60;;;12.60;1.00;;;;;;4931422;29;20419;-65
2022/10/02 00:57:58;;;;;;;6.60;1.87;;;12.60;1.00;;;;;;4932042;29;20468;-65
2022/10/02 01:00:25;;;;;;;3.23;1.67;;;12.60;1.00;;;;;;4943882;28;20496;-66
2022/10/02 01:03:09;;;;;;;3.83;1.87;;;12.60;1.00;;;;;;4976681;28;20403;-67
2022/10/02 01:05:35;;;;;;;3.90;1.80;;;12.60;1.00;;;;;;4988746;28;20409;-68
2022/10/02 01:08:01;;;;;;;4.23;1.90;;;12.60;1.00;;;;;;4989029;28;20551;-62
2022/10/02 01:10:28;;;;;;;7.13;1.93;;;12.60;1.00;;;;;;4989564;28;20418;-64
2022/10/02 01:12:55;;;;;;;2.97;1.77;;;12.60;1.00;;;;;;4990471;28;20469;-64
2022/10/02 01:15:27;;;;;;;5.60;1.77;;;12.60;1.00;;;;;;4982319;28;20451;-67
2022/10/02 01:17:54;;;;;;;3.63;2.23;;;12.60;1.00;;;;;;4981465;28;20484;-65
2022/10/02 01:20:28;;;;;;;2.13;1.87;;;12.60;1.00;;;;;;4984075;28;20413;-67
2022/10/02 01:23:03;;;;;;;6.70;2.33;;;12.60;1.00;;;;;;4990251;28;20419;-67
2022/10/02 01:25:29;;;;;;;2.73;1.87;;;12.50;1.00;;;;;;4990574;28;20786;-67
2022/10/02 01:27:54;;;;;;;3.40;1.87;;;12.50;1.00;;;;;;4990745;28;20463;-64
2022/10/02 01:30:20;;;;;;;2.20;2.00;;;12.50;1.00;;;;;;4990710;28;20186;-66
2022/10/02 01:32:52;;;;;;;5.50;2.57;;;12.50;1.00;;;;;;4989326;28;20642;-67
2022/10/02 01:35:21;;;;;;;3.07;2.20;;;12.50;1.00;;;;;;4986387;28;20180;-69
2022/10/02 01:37:48;;;;;;;8.23;2.67;;;12.50;1.00;;;;;;4987521;28;20527;-65
2022/10/02 01:40:30;;;;;;;3.93;2.70;;;12.50;1.00;;;;;;4992038;28;20412;-65
2022/10/02 01:43:01;;;;;;;3.37;2.60;;;12.60;1.00;;;;;;4989970;28;20412;-66
2022/10/02 01:46:12;;;;;;;8.13;3.37;;;12.50;1.00;;;;;;4990300;28;20470;-66
2022/10/02 01:48:45;;;;;;;6.53;3.10;;;12.50;1.00;;;;;;4974111;28;20980;-67
2022/10/02 01:51:32;;;;;;;5.40;2.73;;;12.50;1.00;;;;;;4988008;28;20423;-67
2022/10/02 01:54:12;;;;;;;2.90;2.60;;;12.50;1.00;;;;;;4989869;28;20820;-68
2022/10/02 01:56:47;;;;;;;3.33;2.77;;;12.50;1.00;;;;;;4990010;28;20486;-66
2022/10/02 01:59:22;;;;;;;3.70;2.90;;;12.60;1.00;;;;;;4989708;28;20431;-66
2022/10/02 02:02:16;;;;;;;5.57;3.50;;;12.60;1.00;;;;;;4989376;28;20416;-66
2022/10/02 02:05:08;;;;;;;3.77;2.70;;;12.60;1.00;;;;;;4984209;28;20947;-67
2022/10/02 02:08:07;;;;;;;6.33;3.50;;;12.60;1.00;;;;;;4990981;28;20452;-67
2022/10/02 02:10:45;;;;;;;3.70;2.90;;;12.50;1.00;;;;;;4996477;28;20404;-67
2022/10/02 02:13:28;;;;;;;4.97;2.90;;;12.50;1.00;;;;;;4989365;28;20409;-67
2022/10/02 02:15:57;;;;;;;2.70;2.50;;;12.50;1.00;;;;;;4989888;28;20400;-66
2022/10/02 02:18:33;;;;;;;6.23;3.90;;;12.70;1.00;;;;;;4989356;28;20419;-68
2022/10/02 02:21:07;;;;;;;2.80;2.60;;;12.60;1.00;;;;;;4988740;28;20408;-66
2022/10/02 02:23:36;;;;;;;3.33;2.93;;;12.60;1.00;;;;;;4988385;28;20506;-67
2022/10/02 02:26:05;;;;;;;3.60;2.50;;;12.60;1.00;;;;;;4989324;28;20410;-69
2022/10/02 02:28:34;;;;;;;3.30;2.57;;;12.60;1.00;;;;;;4988718;28;20468;-67
2022/10/02 02:31:01;;;;;;;7.43;2.97;;;12.60;1.00;;;;;;4950940;28;1107157;-69
2022/10/02 02:33:52;;;;;;;4.70;3.03;;;12.60;1.00;;;;;;4990133;28;20491;-67
2022/10/02 02:36:21;;;;;;;5.00;2.80;;;12.60;1.00;;;;;;4981358;28;20427;-68
2022/10/02 02:38:55;;;;;;;5.20;3.30;;;12.60;1.00;;;;;;4993886;28;20439;-67
2022/10/02 02:41:31;;;;;;;3.70;3.10;;;12.70;1.00;;;;;;4993434;28;20447;-68
2022/10/02 02:44:03;;;;;;;3.70;3.30;;;12.70;1.00;;;;;;4994338;28;20424;-65
2022/10/02 02:47:04;;;;;;;5.17;3.30;;;12.70;1.00;;;;;;4994960;28;20452;-67
2022/10/02 02:49:48;;;;;;;5.70;3.00;;;12.70;1.00;;;;;;4983822;28;20478;-66
2022/10/02 02:52:21;;;;;;;8.07;2.47;;;12.70;1.00;;;;;;4993393;28;20416;-65
2022/10/02 02:54:59;;;;;;;3.40;2.87;;;12.70;1.00;;;;;;4993889;28;20908;-67
2022/10/02 02:57:36;;;;;;;2.67;2.20;;;12.70;1.00;;;;;;4994114;28;20424;-66
2022/10/02 03:00:05;;;;;;;5.03;2.80;;;12.70;1.00;;;;;;4993653;28;20507;-66
2022/10/02 03:02:31;;;;;;;9.20;2.80;;;12.70;1.00;;;;;;4993107;28;20491;-68
2022/10/02 03:04:57;;;;;;;4.87;2.90;;;12.70;1.00;;;;;;4993804;28;20463;-67
2022/10/02 03:07:23;;;;;;;7.23;3.70;;;12.70;1.00;;;;;;4993223;28;20424;-66
2022/10/02 03:10:23;;;;;;;7.60;2.90;;;12.70;1.00;;;;;;4993746;28;20231;-66
2022/10/02 03:13:28;;;;;;;11.03;3.47;;;12.70;1.00;;;;;;4982593;28;20591;-67
2022/10/02 03:15:57;;;;;;;4.33;2.63;;;12.80;1.00;;;;;;4993719;28;20459;-66
2022/10/02 03:18:39;;;;;;;4.40;2.63;;;12.80;1.00;;;;;;4993814;28;20945;-66
2022/10/02 03:21:30;;;;;;;4.50;3.00;;;12.80;1.00;;;;;;4992864;28;20459;-66
2022/10/02 03:24:26;;;;;;;4.30;2.90;;;12.80;1.00;;;;;;4965049;28;20479;-66
2022/10/02 03:27:32;;;;;;;4.40;2.70;;;12.80;1.00;;;;;;4993603;28;20555;-66
2022/10/02 03:30:05;;;;;;;5.30;2.50;;;12.80;1.00;;;;;;4992995;28;20491;-67
2022/10/02 03:32:32;;;;;;;6.87;2.60;;;12.70;1.00;;;;;;4992631;28;20447;-65
2022/10/02 03:34:59;;;;;;;4.97;2.67;;;12.70;1.00;;;;;;4993383;28;20749;-66
2022/10/02 03:37:26;;;;;;;4.73;2.93;;;12.70;1.00;;;;;;4993244;28;20761;-66
2022/10/02 03:39:52;;;;;;;6.80;3.43;;;12.80;1.00;;;;;;4993302;28;20412;-63
2022/10/02 03:42:23;;;;;;;3.97;2.50;;;12.70;1.00;;;;;;4992754;28;20494;-67
2022/10/02 03:44:49;;;;;;;4.57;3.27;;;12.70;1.00;;;;;;4992696;28;20436;-65
2022/10/02 03:47:15;;;;;;;5.57;3.00;;;12.70;1.00;;;;;;4992771;28;20828;-64
2022/10/02 03:49:41;;;;;;;2.50;2.30;;;12.70;1.00;;;;;;4992831;28;20677;-65
2022/10/02 03:52:06;;;;;;;3.97;2.73;;;12.70;1.00;;;;;;4992125;28;20219;-68
2022/10/02 03:54:34;;;;;;;6.43;3.13;;;12.70;1.00;;;;;;4993006;28;20165;-63
2022/10/02 03:57:07;;;;;;;3.53;2.80;;;12.70;1.00;;;;;;4993293;28;20173;-65
2022/10/02 03:59:50;;;;;;;8.50;2.80;;;12.70;1.00;;;;;;4993413;28;20483;-65
2022/10/02 04:02:25;;;;;;;4.83;2.70;;;12.70;1.00;;;;;;4994831;28;20396;-66
2022/10/02 04:05:07;;;;;;;6.03;2.87;;;12.70;1.00;;;;;;4996365;28;20418;-67
2022/10/02 04:07:39;;;;;;;2.87;2.53;;;12.70;1.00;;;;;;4993310;28;20456;-66
2022/10/02 04:10:27;;;;;;;4.30;3.20;;;12.80;1.00;;;;;;4992744;28;20408;-67
2022/10/02 04:13:00;;;;;;;4.37;2.67;;;12.80;1.00;;;;;;4992232;28;20404;-65
2022/10/02 04:15:26;;;;;;;3.07;2.30;;;12.80;1.00;;;;;;4992598;28;20491;-67
2022/10/02 04:17:58;;;;;;;3.30;2.50;;;12.80;1.00;;;;;;4992386;28;20567;-67
2022/10/02 04:20:25;;;;;;;6.83;2.83;;;12.80;1.00;;;;;;4991991;28;20176;-66
2022/10/02 04:23:11;;;;;;;3.80;2.63;;;12.80;1.00;;;;;;4991070;28;20498;-65
2022/10/02 04:25:43;;;;;;;3.87;2.43;;;12.90;1.00;;;;;;4992230;28;20424;-67
2022/10/02 04:28:16;;;;;;;3.13;2.23;;;13.00;1.00;;;;;;4991160;28;20462;-69
2022/10/02 04:30:41;;;;;;;3.73;2.03;;;13.00;1.00;;;;;;4991097;28;20445;-66
2022/10/02 04:33:13;;;;;;;5.27;2.80;;;13.00;1.00;;;;;;4992548;28;20792;-69
2022/10/02 04:35:57;;;;;;;6.00;2.43;;;13.00;1.00;;;;;;4993070;28;20172;-65
2022/10/02 04:38:44;;;;;;;3.87;2.47;;;13.00;1.00;;;;;;4992525;28;20432;-67
2022/10/02 04:41:40;;;;;;;4.17;2.33;;;13.00;1.00;;;;;;4992341;28;20455;-66
2022/10/02 04:44:12;;;;;;;2.70;2.30;;;13.00;1.00;;;;;;5022336;23;20943;-64
2022/10/02 04:47:06;;;;;;;4.67;2.40;;;13.00;1.00;;;;;;5030583;28;21115;-64
2022/10/02 04:50:03;;;;;;;4.37;2.20;;;13.00;1.00;;;;;;5027938;28;20985;-64
2022/10/02 04:53:11;;;;;;;4.97;2.10;;;13.10;1.00;;;;;;5016959;28;20413;-64
2022/10/02 04:55:44;;;;;;;2.70;1.80;;;13.10;1.00;;;;;;5018600;28;20443;-64
2022/10/02 04:58:31;;;;;;;6.50;2.53;;;13.10;1.00;;;;;;5009765;28;20886;-64
2022/10/02 05:01:24;;;;;;;7.20;2.77;;;13.10;1.00;;;;;;5013249;28;20413;-65
2022/10/02 05:04:31;;;;;;;4.93;2.40;;;13.00;1.00;;;;;;5021349;28;20491;-65
2022/10/02 05:07:09;;;;;;;7.60;2.43;;;13.00;1.00;;;;;;5029950;28;20501;-65
2022/10/02 05:09:41;;;;;;;4.43;2.20;;;13.00;1.00;;;;;;5029822;28;20457;-65
2022/10/02 05:12:29;;;;;;;8.87;2.70;;;13.00;1.00;;;;;;5027545;28;20403;-64
2022/10/02 05:15:17;;;;;;;10.77;2.47;;;13.00;1.00;;;;;;5026136;28;20510;-65
2022/10/02 05:17:55;;;;;;;12.67;2.53;;;13.00;1.00;;;;;;5022990;28;20415;-64
2022/10/02 05:20:53;;;;;;;12.40;3.40;;;13.00;1.00;;;;;;5010010;28;20414;-65
2022/10/02 05:23:58;;;;;;;6.80;2.60;;;13.00;1.00;;;;;;5010197;28;20407;-65
2022/10/02 05:26:39;;;;;;;8.57;3.60;;;13.00;1.00;;;;;;5003864;28;20506;-65
2022/10/02 05:29:15;;;;;;;7.03;2.50;;;13.00;1.00;;;;;;5009178;28;20997;-65
2022/10/02 05:32:25;;;;;;;5.30;1.97;;;13.00;1.00;;;;;;5015141;28;20912;-65
2022/10/02 05:35:09;;;;;;;3.93;2.30;;;13.00;1.00;;;;;;5004872;28;20454;-65
2022/10/02 05:37:54;;;;;;;4.97;2.47;;;13.00;1.00;;;;;;5010128;28;20395;-65
2022/10/02 05:40:51;;;;;;;15.13;3.00;;;13.00;1.00;;;;;;5010307;28;20434;-65
2022/10/02 05:43:50;;;;;;;11.57;3.03;;;13.00;1.00;;;;;;5009112;28;20419;-65
2022/10/02 05:46:24;;;;;;;5.23;2.80;;;13.00;1.00;;;;;;5010228;28;20510;-65
2022/10/02 05:49:07;;;;;;;7.87;2.87;;;13.00;1.00;;;;;;5009701;28;20447;-65
2022/10/02 05:51:56;;;;;;;5.13;2.10;;;12.90;1.00;;;;;;5009239;28;20407;-64
2022/10/02 05:54:29;;;;;;;4.13;2.40;;;12.90;1.00;;;;;;5009836;28;20443;-65
2022/10/02 05:57:10;;;;;;;6.10;3.50;;;12.80;1.00;;;;;;5009910;28;20918;-64
2022/10/02 05:59:39;;;;;;;7.63;2.60;;;12.90;1.00;;;;;;5009030;28;20853;-64
2022/10/02 06:02:33;;;;;;;6.40;2.50;;;12.90;1.00;;;;;;5009344;28;20520;-64
2022/10/02 06:05:23;;;;;;;4.83;2.63;;;12.90;1.00;;;;;;5004642;28;20438;-65
2022/10/02 06:07:55;;;;;;;15.47;2.97;;;12.90;1.00;;;;;;5009046;28;20455;-65
2022/10/02 06:10:26;;;;;;;8.73;3.13;;;13.00;1.00;;;;;;5009372;28;20407;-65
2022/10/02 06:13:10;;;;;;;10.67;3.53;;;13.00;1.00;;;;;;5013132;28;20403;-65
2022/10/02 06:15:45;;;;;;;16.37;3.57;;;13.00;1.00;;;;;;5013438;28;20427;-65
2022/10/02 06:18:27;;;;;;;5.77;3.97;;;13.00;1.00;;;;;;5013269;28;20898;-65
2022/10/02 06:21:00;;;;;;;15.30;3.80;;;13.10;1.00;;;;;;5012370;28;20472;-65
2022/10/02 06:23:44;;;;;;;25.33;4.80;;;13.10;1.00;;;;;;5013172;28;20495;-65
2022/10/02 06:26:33;;;;;;;42.57;6.20;;;13.10;1.00;;;;;;5013154;28;20397;-65
2022/10/02 06:29:04;;;;;;;27.67;4.83;;;13.10;1.00;;;;;;5012451;28;20457;-65
2022/10/02 06:31:51;;;;;;;29.87;8.57;;;13.20;1.00;;;;;;5012795;28;20408;-65
2022/10/02 06:34:17;;;;;;;34.67;5.40;;;13.20;1.00;;;;;;5012903;28;20418;-65
2022/10/02 06:36:48;;;;;;;23.20;4.17;;;13.20;1.00;;;;;;5013057;28;20404;-65
2022/10/02 06:39:33;;;;;;;16.80;5.37;;;13.20;1.00;;;;;;5012958;28;20583;-65
2022/10/02 06:42:33;;;;;;;11.60;4.17;;;13.20;1.00;;;;;;5012395;28;20414;-65
2022/10/02 06:45:15;;;;;;;18.37;4.33;;;13.20;1.00;;;;;;5012473;28;20462;-65
2022/10/02 06:48:04;;;;;;;9.13;3.40;;;13.30;1.00;;;;;;5013075;28;20410;-65
2022/10/02 06:50:43;;;;;;;6.80;3.40;;;13.30;1.00;;;;;;4991446;28;20779;-66
2022/10/02 06:53:17;;;;;;;5.53;3.37;;;13.30;1.00;;;;;;5012498;28;20723;-64
2022/10/02 06:56:06;;;;;;;12.87;3.97;;;13.30;1.00;;;;;;5012842;28;20429;-65
2022/10/02 06:58:41;;;;;;;13.27;3.60;;;13.30;1.00;;;;;;5011835;28;20778;-65
2022/10/02 07:01:28;;;;;;;7.00;3.43;;;13.40;1.00;;;;;;5012020;28;20410;-65
2022/10/02 07:04:00;;;;;;;12.83;3.83;;;13.40;1.00;;;;;;5012017;28;20469;-65
2022/10/02 07:06:32;;;;;;;9.83;3.40;;;13.50;1.00;;;;;;5012516;28;20410;-64
2022/10/02 07:09:06;;;;;;;9.37;3.10;;;13.50;1.00;;;;;;5012105;28;20471;-64
2022/10/02 07:11:44;;;;;;;10.77;4.00;;;13.50;1.00;;;;;;5011635;28;20399;-64
2022/10/02 07:14:12;;;;;;;17.03;5.70;;;13.60;1.00;;;;;;5012040;28;20511;-66
2022/10/02 07:17:06;;;;;;;20.63;5.30;;;13.60;1.00;;;;;;5012261;28;20399;-66
2022/10/02 07:20:04;;;;;;;21.63;5.43;;;13.60;1.00;;;;;;5012324;28;20605;-64
2022/10/02 07:22:48;;;;;;;40.30;8.03;;;13.70;1.00;;;;;;5011617;28;20461;-64
2022/10/02 07:25:16;;;;;;;21.17;5.63;;;13.70;1.00;;;;;;5012040;28;20522;-64
2022/10/02 07:27:51;;;;;;;4.00;3.47;;;13.70;1.00;;;;;;5011986;28;20415;-65
2022/10/02 07:30:17;;;;;;;17.87;5.43;;;13.70;1.00;;;;;;5011413;28;20411;-65
2022/10/02 07:32:47;;;;;;;25.30;5.60;;;13.80;1.00;;;;;;5018710;28;20768;-65
2022/10/02 07:35:31;;;;;;;27.10;6.37;;;13.90;1.00;;;;;;5014001;28;20427;-65
2022/10/02 07:38:48;;;;;;;8.13;3.90;;;14.30;1.00;;;;;;5013326;28;20482;-65
2022/10/02 07:41:45;;;;;;;6.43;4.07;;;14.90;1.00;;;;;;5029502;28;20510;-65
2022/10/02 07:44:39;;;;;;;8.30;3.60;;;15.40;1.00;;;;;;5030865;28;20445;-65
2022/10/02 07:47:17;;;;;;;9.43;3.80;;;15.30;1.00;;;;;;5013756;28;20657;-66
2022/10/02 07:49:54;;;;;;;12.47;3.97;;;15.20;1.00;;;;;;5011458;28;20459;-65
2022/10/02 07:52:38;;;;;;;6.63;4.00;;;15.20;1.00;;;;;;5030392;28;20398;-65
2022/10/02 07:55:24;;;;;;;5.87;3.83;;;15.20;1.00;;;;;;5031088;28;20517;-65
2022/10/02 07:57:58;;;;;;;8.60;4.03;;;15.20;1.00;;;;;;5031403;28;20399;-65
2022/10/02 08:00:26;;;;;;;29.10;6.80;;;15.30;1.00;;;;;;5031113;28;20477;-64
2022/10/02 08:02:56;;;;;;;18.23;6.00;;;15.40;1.00;;;;;;5030290;28;20758;-65
2022/10/02 08:05:29;;;;;;;26.13;4.93;;;15.50;1.00;;;;;;5011467;28;20424;-65
2022/10/02 08:08:03;;;;;;;31.10;5.50;;;15.70;1.00;;;;;;5011094;28;20462;-65
2022/10/02 08:10:36;;;;;;;25.33;5.07;;;15.80;1.00;;;;;;5010218;28;20435;-66
2022/10/02 08:13:21;;;;;;;8.40;3.43;;;15.80;1.00;;;;;;5010993;28;20487;-65
2022/10/02 08:15:54;;;;;;;29.87;4.77;;;16.10;1.00;;;;;;5012241;28;20916;-65
2022/10/02 08:18:38;;;;;;;15.17;4.70;;;16.60;1.00;;;;;;5009399;28;20505;-64
2022/10/02 08:21:13;;;;;;;10.10;4.70;;;17.00;99.90;;;;;;5010025;28;20745;-64
2022/10/02 08:23:51;;;;;;;16.30;4.80;;;17.40;92.60;;;;;;5010449;28;20415;-64
2022/10/02 08:26:33;;;;;;;30.97;5.53;;;17.80;1.00;;;;;;5010976;28;20411;-65
2022/10/02 08:29:13;;;;;;;15.03;4.97;;;18.40;99.90;;;;;;5010140;28;20458;-65
2022/10/02 08:31:39;;;;;;;7.73;2.80;;;18.80;99.90;;;;;;5010458;28;20871;-65
2022/10/02 08:34:17;;;;;;;8.60;2.83;;;19.10;1.00;;;;;;5010163;28;20427;-65
2022/10/02 08:37:01;;;;;;;7.43;2.97;;;19.20;99.90;;;;;;5011197;28;20165;-65
2022/10/02 08:39:43;;;;;;;10.20;2.63;;;18.80;23.10;;;;;;5010472;28;20462;-65
2022/10/02 08:42:36;;;;;;;6.20;3.00;;;18.70;99.90;;;;;;5010258;28;20411;-66
2022/10/02 08:45:26;;;;;;;19.50;3.60;;;18.90;1.00;;;;;;5010198;28;20439;-67
2022/10/02 08:48:24;;;;;;;5.67;2.83;;;18.90;1.00;;;;;;5010524;28;20502;-65
2022/10/02 08:50:50;;;;;;;7.87;2.50;;;18.80;62.40;;;;;;4976444;28;20420;-66
2022/10/02 08:53:50;;;;;;;8.20;2.53;;;18.90;10.00;;;;;;5010629;28;20486;-66
2022/10/02 08:56:45;;;;;;;2.93;2.37;;;19.20;1.00;;;;;;5010535;28;20426;-65
2022/10/02 08:59:24;;;;;;;9.10;2.50;;;19.10;1.00;;;;;;4988347;28;20522;-66
2022/10/02 09:02:26;;;;;;;13.57;2.60;;;19.50;1.00;;;;;;5009967;28;20840;-65
2022/10/02 09:05:29;;;;;;;5.80;2.00;;;20.00;99.90;;;;;;5010482;28;20431;-66
2022/10/02 09:08:28;;;;;;;3.53;1.80;;;20.10;99.90;;;;;;5010414;28;20477;-65
2022/10/02 09:11:12;;;;;;;4.80;2.00;;;20.20;99.30;;;;;;5017997;28;20801;-65
2022/10/02 09:13:56;;;;;;;7.03;2.53;;;20.10;99.90;;;;;;5015972;28;20402;-65
2022/10/02 09:16:28;;;;;;;10.93;2.10;;;19.90;99.90;;;;;;5027380;28;20426;-66
2022/10/02 09:19:24;;;;;;;5.43;2.07;;;19.70;99.90;;;;;;5020379;28;20918;-65
2022/10/02 09:21:51;;;;;;;7.67;1.87;;;19.70;99.90;;;;;;5006587;28;20977;-65
2022/10/02 09:24:39;;;;;;;3.27;1.57;;;19.80;99.90;;;;;;5024762;28;20482;-66
2022/10/02 09:27:23;;;;;;;2.77;2.33;;;19.70;99.90;;;;;;5018686;28;20605;-68
2022/10/02 09:30:00;;;;;;;3.17;1.80;;;19.80;99.90;;;;;;5023045;28;20462;-67
2022/10/02 09:33:00;;;;;;;28.17;2.83;;;19.90;99.90;;;;;;5021542;28;20457;-67
2022/10/02 09:35:49;;;;;;;7.40;1.97;;;19.80;99.90;;;;;;5024167;28;20473;-66
2022/10/02 09:38:46;;;;;;;9.77;2.50;;;19.60;99.90;;;;;;5018160;28;20414;-67
2022/10/02 09:41:43;;;;;;;7.30;2.03;;;19.30;99.90;;;;;;5019270;28;20493;-68
2022/10/02 09:44:34;;;;;;;3.70;2.60;;;19.30;99.90;;;;;;5028398;28;20442;-67
2022/10/02 09:47:36;;;;;;;8.27;1.83;;;19.30;1.00;;;;;;5030301;28;20418;-67
2022/10/02 09:50:39;;;;;;;3.37;1.60;;;19.40;1.00;;;;;;5033459;28;20479;-66
2022/10/02 09:53:33;;;;;;;19.60;2.87;;;19.60;1.00;;;;;;5023432;28;20419;-66
2022/10/02 09:56:20;;;;;;;4.30;1.40;;;19.70;1.00;;;;;;5013211;28;20423;-66
2022/10/02 09:59:10;;;;;;;4.90;1.47;;;19.80;99.90;;;;;;5032667;28;20414;-66
2022/10/02 10:02:00;;;;;;;10.53;3.03;;;19.90;99.90;;;;;;5032683;28;20402;-66
2022/10/02 10:05:07;;;;;;;11.13;2.20;;;19.80;99.90;;;;;;5021184;28;20605;-68
2022/10/02 10:07:47;;;;;;;6.67;2.23;;;19.60;99.90;;;;;;5013267;28;20533;-67
2022/10/02 10:10:50;;;;;;;6.53;2.13;;;19.70;1.00;;;;;;5012868;28;20437;-66
2022/10/02 10:13:47;;;;;;;6.00;1.67;;;19.90;99.90;;;;;;5012720;28;20437;-68
2022/10/02 10:16:31;;;;;;;5.87;1.67;;;19.90;99.90;;;;;;5013320;28;20399;-67
2022/10/02 10:19:27;;;;;;;5.50;1.70;;;19.80;99.90;;;;;;5025543;28;20842;-67
2022/10/02 10:22:05;;;;;;;8.70;2.47;;;19.70;1.00;;;;;;5012985;28;20997;-67
2022/10/02 10:25:09;;;;;;;30.03;3.23;;;19.70;1.00;;;;;;5032384;28;20440;-66
2022/10/02 10:28:06;;;;;;;4.17;3.17;;;19.60;99.90;;;;;;5020788;28;20426;-67
2022/10/02 10:30:43;;;;;;;7.07;2.77;;;19.40;99.90;;;;;;5017789;28;20807;-67
2022/10/02 10:33:17;;;;;;;4.07;1.60;;;19.20;1.00;;;;;;5032267;28;20413;-67
2022/10/02 10:36:03;;;;;;;5.10;1.50;;;19.20;1.00;;;;;;5021949;28;20514;-67
2022/10/02 10:38:57;;;;;;;3.80;1.50;;;19.00;70.80;;;;;;5001913;28;20418;-67
2022/10/02 10:41:37;;;;;;;2.23;1.20;;;18.90;99.90;;;;;;5012603;28;20408;-67
2022/10/02 10:44:18;;;;;;;8.50;1.70;;;18.90;41.20;;;;;;5012337;28;20808;-67
2022/10/02 10:47:19;;;;;;;2.03;1.50;;;19.00;99.90;;;;;;5014095;28;20461;-67
2022/10/02 10:50:16;;;;;;;15.13;3.80;;;19.00;99.90;;;;;;5030622;28;20545;-67
2022/10/02 10:53:15;;;;;;;16.07;2.43;;;19.10;99.90;;;;;;5030781;28;20446;-66
2022/10/02 10:56:16;;;;;;;16.70;2.73;;;19.10;8.30;;;;;;5030229;28;20533;-67
2022/10/02 10:58:54;;;;;;;8.33;2.13;;;19.00;99.90;;;;;;5026897;28;20547;-67
2022/10/02 11:01:25;;;;;;;16.40;2.43;;;19.00;99.90;;;;;;5023386;28;20423;-67
2022/10/02 11:04:09;;;;;;;3.83;2.00;;;19.00;1.00;;;;;;5026497;28;20430;-67
2022/10/02 11:07:06;;;;;;;14.07;2.17;;;19.00;1.00;;;;;;5031463;28;20427;-68
2022/10/02 11:09:41;;;;;;;36.83;5.20;;;18.90;1.00;;;;;;5028841;28;20461;-68
2022/10/02 11:12:22;;;;;;;7.90;1.90;;;18.90;99.90;;;;;;5026741;28;20491;-67
2022/10/02 11:15:30;;;;;;;13.50;2.30;;;18.90;99.90;;;;;;5023919;28;20780;-67
2022/10/02 11:18:34;;;;;;;5.80;1.43;;;18.90;1.00;;;;;;4994113;28;20428;-68
2022/10/02 11:21:24;;;;;;;4.83;1.57;;;18.90;1.00;;;;;;4984078;28;20438;-67
2022/10/02 11:24:19;;;;;;;17.43;3.03;;;18.90;1.00;;;;;;5016610;28;20496;-68
2022/10/02 11:27:10;;;;;;;2.80;1.10;;;19.00;1.00;;;;;;4996012;28;20415;-67
2022/10/02 11:30:05;;;;;;;6.13;1.23;;;18.90;1.00;;;;;;5024520;28;20504;-68
2022/10/02 11:32:50;;;;;;;3.70;1.27;;;18.90;99.90;;;;;;5020734;28;20442;-66
2022/10/02 11:35:48;;;;;;;4.23;1.60;;;19.00;97.90;;;;;;5029564;28;20993;-67
2022/10/02 11:38:31;;;;;;;10.73;1.30;;;19.10;1.00;;;;;;5029356;28;20446;-66
2022/10/02 11:41:32;;;;;;;2.77;1.13;;;19.20;1.00;;;;;;5026747;28;20410;-67
2022/10/02 11:44:07;;;;;;;6.83;1.67;;;19.20;1.00;;;;;;5021658;28;20457;-68
2022/10/02 11:47:27;;;;;;;20.53;2.60;;;19.20;1.00;;;;;;5026184;28;20471;-66
2022/10/02 11:50:00;;;;;;;9.83;1.90;;;19.20;1.00;;;;;;4988745;28;20474;-67
2022/10/02 11:52:53;;;;;;;2.60;0.93;;;19.30;1.00;;;;;;5029937;28;20498;-67
2022/10/02 11:55:57;;;;;;;4.13;0.80;;;19.30;1.00;;;;;;5027689;28;20469;-66
2022/10/02 11:58:44;;;;;;;3.23;1.10;;;19.40;1.00;;;;;;5023818;28;20497;-66
2022/10/02 12:01:21;;;;;;;5.67;0.87;;;19.40;1.00;;;;;;5026205;28;20942;-67
2022/10/02 12:04:19;;;;;;;5.10;0.80;;;19.40;1.00;;;;;;5026296;28;20410;-66
2022/10/02 12:07:04;;;;;;;1.23;0.77;;;19.40;1.00;;;;;;5024724;28;20773;-67
2022/10/02 12:09:53;;;;;;;17.37;1.93;;;19.40;1.00;;;;;;5028290;28;20476;-67
2022/10/02 12:12:22;;;;;;;1.60;1.07;;;19.40;1.00;;;;;;5024985;28;20442;-67
2022/10/02 12:15:07;;;;;;;3.33;1.10;;;19.40;1.00;;;;;;5026579;28;20563;-66
2022/10/02 12:18:05;;;;;;;5.30;1.00;;;19.20;1.00;;;;;;5023982;28;20426;-65
2022/10/02 12:27:11;;;;;;;1.63;1.10;;;19.10;1.00;;;;;;5030279;28;20561;-66
2022/10/02 12:29:39;;;;;;;5.63;2.70;;;19.00;1.00;;;;;;5002562;28;20473;-66
2022/10/02 12:32:25;;;;;;;14.03;4.67;;;18.90;1.00;;;;;;5027664;28;20754;-67
2022/10/02 12:35:16;;;;;;;8.20;2.07;;;18.90;1.00;;;;;;5010113;28;20450;-67
2022/10/02 12:37:45;;;;;;;7.80;4.67;;;18.80;1.00;;;;;;5025579;28;20437;-67
2022/10/02 12:40:31;;;;;;;10.13;3.30;;;18.80;1.00;;;;;;5029142;28;20484;-66
2022/10/02 12:43:37;;;;;;;6.73;2.00;;;18.80;1.00;;;;;;5029566;28;20414;-66
2022/10/02 12:46:20;;;;;;;3.13;2.43;;;18.70;1.00;;;;;;5025934;28;20991;-66
2022/10/02 12:48:49;;;;;;;3.57;1.33;;;18.70;1.00;;;;;;5029003;28;20508;-66
2022/10/02 12:51:18;;;;;;;15.27;2.00;;;18.70;1.00;;;;;;5028900;28;20497;-66
2022/10/02 12:54:03;;;;;;;2.87;1.50;;;18.70;1.00;;;;;;5028368;28;20423;-65
2022/10/02 12:56:47;;;;;;;4.03;1.40;;;18.60;1.00;;;;;;5029478;28;20402;-66
2022/10/02 12:59:40;;;;;;;12.07;2.87;;;18.70;1.00;;;;;;5029014;28;20926;-66
2022/10/02 13:02:34;;;;;;;2.27;1.43;;;18.70;99.90;;;;;;5029031;28;20930;-66
2022/10/02 13:05:19;;;;;;;3.60;1.50;;;18.70;1.00;;;;;;5029551;28;20431;-65
2022/10/02 13:08:30;;;;;;;27.73;4.23;;;18.70;1.00;;;;;;5028258;28;20418;-66
2022/10/02 13:11:13;;;;;;;10.57;2.73;;;18.80;1.00;;;;;;5008313;28;20422;-66
2022/10/02 13:13:49;;;;;;;5.00;1.63;;;18.70;1.00;;;;;;5028667;28;20456;-66
2022/10/02 13:16:40;;;;;;;85.37;10.37;;;18.60;1.00;;;;;;5029256;28;20701;-66
2022/10/02 13:19:29;;;;;;;16.00;3.40;;;18.50;99.90;;;;;;5028952;28;20726;-66
2022/10/02 13:21:54;;;;;;;7.87;2.90;;;17.90;99.90;;;;;;5020451;28;20418;-67
2022/10/02 13:24:35;;;;;;;15.50;3.47;;;17.70;99.90;;;;;;5025308;28;20461;-67
2022/10/02 13:27:28;;;;;;;18.97;4.00;;;17.60;1.00;;;;;;5018470;28;20184;-67
2022/10/02 13:30:01;;;;;;;16.00;3.70;;;17.50;1.00;;;;;;5021854;28;20461;-68
2022/10/02 13:32:57;;;;;;;11.30;3.00;;;17.40;1.00;;;;;;5028672;28;20407;-68
2022/10/02 13:35:41;;;;;;;24.37;4.73;;;17.30;1.00;;;;;;5016044;28;20445;-68
2022/10/02 13:38:18;;;;;;;11.73;8.40;;;17.20;1.00;;;;;;5018729;28;20780;-69
2022/10/02 13:40:50;;;;;;;14.57;9.40;;;17.30;1.00;;;;;;5014869;28;20442;-68
2022/10/02 13:43:33;;;;;;;3.43;2.03;;;17.20;1.00;;;;;;5020701;28;20965;-68
2022/10/02 13:45:58;;;;;;;5.57;2.33;;;16.90;1.00;;;;;;5027867;28;20760;-68
2022/10/02 13:48:31;;;;;;;6.70;1.90;;;16.80;1.00;;;;;;5021336;28;20469;-68
2022/10/02 13:51:04;;;;;;;6.77;1.90;;;16.70;1.00;;;;;;5021333;28;20271;-68
2022/10/02 13:53:57;;;;;;;8.67;6.10;;;16.50;1.00;;;;;;5025840;28;20414;-68
2022/10/02 13:56:53;;;;;;;11.77;4.60;;;16.40;1.00;;;;;;5023077;28;20421;-67
2022/10/02 13:59:36;;;;;;;4.23;1.93;;;16.50;1.00;;;;;;5025580;28;20419;-68
2022/10/02 14:02:10;;;;;;;11.30;8.07;;;16.50;1.00;;;;;;5021576;28;20426;-66
2022/10/02 14:05:10;;;;;;;4.50;3.27;;;16.50;1.00;;;;;;5025958;28;20434;-68
2022/10/02 14:07:38;;;;;;;6.93;3.17;;;16.40;1.00;;;;;;4991841;28;20430;-68
2022/10/02 14:10:31;;;;;;;5.93;2.90;;;16.40;1.00;;;;;;5025949;28;20521;-67
2022/10/02 14:13:16;;;;;;;8.67;2.20;;;16.40;1.00;;;;;;5019770;28;20417;-66
2022/10/02 14:15:53;;;;;;;17.77;2.93;;;16.40;1.00;;;;;;5022418;28;20450;-65
2022/10/02 14:18:30;;;;;;;1.50;1.00;;;16.50;1.00;;;;;;5020915;28;20506;-65
2022/10/02 14:21:16;;;;;;;8.47;1.50;;;16.60;1.00;;;;;;5022773;28;20417;-65